Time;durP1;ratioP1;P1;durP2;ratioP2;P2;SDS_P1;SDS_P2;PMS_P1;PMS_P2;Temp;Humidity;BMP_temperature;BMP_pressure;BME280_temperature;BME280_humidity;BME280_pressure;Samples;Min_cycle;Max_cycle;Signal;HPM_P1;HPM_P2
2024/01/01 00:00:18;;;;;;;82.28;73.85;;;7.80;99.90;;;;;;5069462;28;20036;-76
2024/01/01 00:02:44;;;;;;;76.40;68.28;;;7.80;99.90;;;;;;5085258;28;20051;-76
2024/01/01 00:05:11;;;;;;;72.43;64.68;;;7.80;99.90;;;;;;5084133;28;20127;-76
2024/01/01 00:07:37;;;;;;;68.38;59.63;;;7.90;99.90;;;;;;5080140;28;20048;-76
2024/01/01 00:10:03;;;;;;;62.47;55.03;;;7.90;99.90;;;;;;5057233;28;20374;-76
2024/01/01 00:12:29;;;;;;;59.47;53.13;;;7.90;99.90;;;;;;5056828;28;20081;-76
2024/01/01 00:14:58;;;;;;;56.53;50.58;;;7.90;99.90;;;;;;5063099;28;20048;-76
2024/01/01 00:17:24;;;;;;;55.80;48.90;;;7.90;99.90;;;;;;5071109;28;20074;-75
2024/01/01 00:19:50;;;;;;;45.95;40.80;;;7.90;99.90;;;;;;5050696;28;20031;-75
2024/01/01 00:22:16;;;;;;;48.38;40.20;;;7.90;99.90;;;;;;5062671;28;20116;-76
2024/01/01 00:24:42;;;;;;;44.20;38.40;;;8.00;99.90;;;;;;5062016;28;20440;-76
2024/01/01 00:27:08;;;;;;;43.63;36.00;;;8.00;99.90;;;;;;5058308;28;20040;-76
2024/01/01 00:29:37;;;;;;;38.10;34.08;;;8.00;99.90;;;;;;5065896;28;20077;-76
2024/01/01 00:32:05;;;;;;;39.60;32.65;;;8.00;99.90;;;;;;5089923;28;20072;-76
2024/01/01 00:34:31;;;;;;;34.35;28.75;;;8.10;99.90;;;;;;5081540;28;20056;-76
2024/01/01 00:36:56;;;;;;;33.17;28.00;;;8.10;99.90;;;;;;5079035;28;20036;-79
2024/01/01 00:39:22;;;;;;;34.47;27.58;;;8.10;99.90;;;;;;5081556;28;20035;-78
2024/01/01 00:41:48;;;;;;;34.58;27.08;;;8.20;99.90;;;;;;5076890;28;20044;-78
2024/01/01 00:44:13;;;;;;;29.95;26.70;;;8.20;99.90;;;;;;5064220;28;20127;-78
2024/01/01 00:46:39;;;;;;;35.70;28.25;;;8.20;99.90;;;;;;5088123;28;20115;-78
2024/01/01 00:49:05;;;;;;;39.03;31.33;;;8.20;99.90;;;;;;5084152;28;20051;-77
2024/01/01 00:51:31;;;;;;;39.05;31.08;;;8.30;99.90;;;;;;5085050;27;20055;-78
2024/01/01 00:53:57;;;;;;;40.17;31.30;;;8.30;99.90;;;;;;5091123;28;20035;-77
2024/01/01 00:56:23;;;;;;;36.58;30.75;;;8.30;99.90;;;;;;5081681;28;20365;-75
2024/01/01 00:58:48;;;;;;;42.38;32.47;;;8.30;99.90;;;;;;5068626;28;20035;-76
2024/01/01 01:01:14;;;;;;;42.25;33.40;;;8.30;99.90;;;;;;5068651;28;20043;-75
2024/01/01 01:03:40;;;;;;;37.58;31.67;;;8.30;99.90;;;;;;5085439;28;20078;-75
2024/01/01 01:06:06;;;;;;;36.90;31.30;;;8.40;99.90;;;;;;5088652;28;20126;-75
2024/01/01 01:08:31;;;;;;;33.25;29.58;;;8.40;99.90;;;;;;5062851;28;20139;-75
2024/01/01 01:10:57;;;;;;;36.58;28.77;;;8.40;99.90;;;;;;5093489;27;20542;-75
2024/01/01 01:13:23;;;;;;;35.10;29.10;;;8.40;99.90;;;;;;5069339;28;20498;-75
2024/01/01 01:15:49;;;;;;;35.03;27.90;;;8.40;99.90;;;;;;5072424;27;20387;-75
2024/01/01 01:18:18;;;;;;;35.67;29.10;;;8.40;99.90;;;;;;5067001;28;20513;-74
2024/01/01 01:20:48;;;;;;;32.65;26.42;;;8.40;99.90;;;;;;5066736;28;20138;-75
2024/01/01 01:23:13;;;;;;;33.10;26.85;;;8.50;99.90;;;;;;5071378;28;20079;-76
2024/01/01 01:25:39;;;;;;;33.47;26.92;;;8.40;99.90;;;;;;5068955;28;20071;-75
2024/01/01 01:28:05;;;;;;;34.25;26.52;;;8.40;99.90;;;;;;5080089;28;20036;-75
2024/01/01 01:30:31;;;;;;;35.30;27.73;;;8.40;99.90;;;;;;5071563;28;20543;-75
2024/01/01 01:33:00;;;;;;;33.78;28.13;;;8.40;99.90;;;;;;5070194;28;20067;-75
2024/01/01 01:35:26;;;;;;;30.83;26.23;;;8.30;99.90;;;;;;5062639;28;20047;-77
2024/01/01 01:37:52;;;;;;;36.22;27.23;;;8.30;99.90;;;;;;5094936;28;20036;-77
2024/01/01 01:40:18;;;;;;;32.47;26.90;;;8.30;99.90;;;;;;5081349;28;20497;-77
2024/01/01 01:42:47;;;;;;;35.90;28.55;;;8.30;99.90;;;;;;5086502;28;20076;-78
2024/01/01 01:45:13;;;;;;;30.60;26.50;;;8.30;99.90;;;;;;5064578;28;20043;-77
2024/01/01 01:47:40;;;;;;;35.17;28.55;;;8.40;99.90;;;;;;5068537;28;20044;-77
2024/01/01 01:50:07;;;;;;;34.85;27.90;;;8.30;99.90;;;;;;5083552;27;20051;-77
2024/01/01 01:52:34;;;;;;;34.17;27.00;;;8.30;99.90;;;;;;5067258;27;20048;-77
2024/01/01 01:55:01;;;;;;;33.28;26.95;;;8.30;99.90;;;;;;5070318;28;20052;-77
2024/01/01 01:57:28;;;;;;;33.05;27.52;;;8.30;99.90;;;;;;5078209;27;20189;-78
2024/01/01 01:59:53;;;;;;;34.15;28.15;;;8.30;99.90;;;;;;5075008;28;20036;-77
2024/01/01 02:02:22;;;;;;;31.15;27.67;;;8.30;99.90;;;;;;5077816;27;20039;-78
2024/01/01 02:04:50;;;;;;;33.45;28.55;;;8.30;99.90;;;;;;5084624;27;20548;-77
2024/01/01 02:07:16;;;;;;;35.65;29.30;;;8.30;99.90;;;;;;5073735;27;20046;-77
2024/01/01 02:09:41;;;;;;;32.40;28.27;;;8.30;99.90;;;;;;5059678;28;20040;-77
2024/01/01 02:12:10;;;;;;;34.75;28.08;;;8.30;99.90;;;;;;5063622;28;20089;-75
2024/01/01 02:14:36;;;;;;;32.25;26.40;;;8.20;99.90;;;;;;5072148;28;20039;-75
2024/01/01 02:17:02;;;;;;;32.28;28.23;;;8.20;99.90;;;;;;5086642;28;20047;-75
2024/01/01 02:19:28;;;;;;;39.08;34.15;;;8.20;99.90;;;;;;5097150;27;20045;-75
2024/01/01 02:21:55;;;;;;;43.97;39.45;;;8.20;99.90;;;;;;5083278;28;20039;-75
2024/01/01 02:24:21;;;;;;;48.63;43.13;;;8.20;99.90;;;;;;5096094;27;20060;-75
2024/01/01 02:26:47;;;;;;;41.55;36.67;;;8.20;99.90;;;;;;5061492;28;20700;-78
2024/01/01 02:29:14;;;;;;;37.00;32.95;;;8.20;99.90;;;;;;5086363;27;20050;-78
2024/01/01 02:31:40;;;;;;;32.85;29.27;;;8.20;99.90;;;;;;5062140;28;20040;-76
2024/01/01 02:34:06;;;;;;;30.98;25.45;;;8.20;99.90;;;;;;5065578;28;20044;-76
2024/01/01 02:36:36;;;;;;;24.17;20.92;;;8.20;99.90;;;;;;5088635;28;20119;-76
2024/01/01 02:39:03;;;;;;;25.48;21.15;;;8.20;99.90;;;;;;5082196;27;21346;-76
2024/01/01 02:41:34;;;;;;;24.65;21.33;;;8.10;99.90;;;;;;5066433;27;20040;-76
2024/01/01 02:44:00;;;;;;;34.10;25.52;;;8.10;99.90;;;;;;5068322;28;20044;-76
2024/01/01 02:46:26;;;;;;;27.00;23.23;;;8.10;99.90;;;;;;5080520;28;20032;-76
2024/01/01 02:48:52;;;;;;;32.83;25.90;;;8.10;99.90;;;;;;5083975;28;20458;-76
2024/01/01 02:51:18;;;;;;;26.17;21.20;;;7.90;99.90;;;;;;5081140;28;20139;-76
2024/01/01 02:53:44;;;;;;;26.80;20.38;;;7.80;99.90;;;;;;5067240;27;20512;-76
2024/01/01 02:56:20;;;;;;;28.15;20.77;;;7.80;99.90;;;;;;5084472;28;20058;-76
2024/01/01 02:58:46;;;;;;;26.23;19.45;;;7.70;99.90;;;;;;5068346;27;20305;-76
2024/01/01 03:01:12;;;;;;;30.70;20.48;;;7.60;99.90;;;;;;5074214;28;20803;-76
2024/01/01 03:03:38;;;;;;;30.75;20.30;;;7.50;99.90;;;;;;5079084;27;20128;-75
2024/01/01 03:06:04;;;;;;;33.85;21.23;;;7.50;99.90;;;;;;5057906;27;20646;-75
2024/01/01 03:08:29;;;;;;;44.05;23.63;;;7.50;99.90;;;;;;5060071;28;20105;-75
2024/01/01 03:10:56;;;;;;;41.13;21.17;;;7.50;99.90;;;;;;5060722;28;20047;-75
2024/01/01 03:13:21;;;;;;;44.17;23.88;;;7.50;99.90;;;;;;5079989;28;20440;-75
2024/01/01 03:15:47;;;;;;;45.20;25.08;;;7.40;99.90;;;;;;5052092;28;20040;-75
2024/01/01 03:18:17;;;;;;;48.67;28.30;;;7.40;99.90;;;;;;5078084;28;20052;-75
2024/01/01 03:20:43;;;;;;;46.83;27.00;;;7.40;99.90;;;;;;5080116;28;20691;-74
2024/01/01 03:23:08;;;;;;;55.90;30.25;;;7.40;99.90;;;;;;5075743;28;20059;-74
2024/01/01 03:25:34;;;;;;;38.72;23.15;;;7.30;99.90;;;;;;5075933;27;20047;-74
2024/01/01 03:28:00;;;;;;;35.33;22.90;;;7.40;99.90;;;;;;5061212;28;20063;-74
2024/01/01 03:30:26;;;;;;;34.60;23.73;;;7.30;99.90;;;;;;5066910;28;20576;-74
2024/01/01 03:32:51;;;;;;;45.15;29.90;;;7.20;99.90;;;;;;5093356;27;20070;-74
2024/01/01 03:35:19;;;;;;;35.13;28.35;;;7.10;99.90;;;;;;5085039;28;20044;-74
2024/01/01 03:37:45;;;;;;;37.20;27.30;;;7.30;99.90;;;;;;5070417;28;20051;-75
2024/01/01 03:40:12;;;;;;;35.58;27.13;;;7.30;99.90;;;;;;5071049;27;20643;-75
2024/01/01 03:42:38;;;;;;;33.50;26.35;;;7.20;99.90;;;;;;5070503;28;20051;-75
2024/01/01 03:45:05;;;;;;;33.35;27.00;;;7.10;99.90;;;;;;5081060;28;20111;-74
2024/01/01 03:47:37;;;;;;;32.00;26.77;;;7.20;99.90;;;;;;5082874;28;20046;-74
2024/01/01 03:50:05;;;;;;;22.73;16.80;;;7.20;99.90;;;;;;5086758;28;20093;-74
2024/01/01 03:52:31;;;;;;;20.70;16.27;;;7.10;99.90;;;;;;5079129;28;20048;-75
2024/01/01 03:54:57;;;;;;;26.02;16.40;;;7.10;99.90;;;;;;5082420;28;20486;-76
2024/01/01 03:57:23;;;;;;;19.73;15.07;;;7.00;99.90;;;;;;5063374;28;20040;-75
2024/01/01 03:59:49;;;;;;;19.30;11.70;;;7.10;99.90;;;;;;5093130;28;20489;-75
2024/01/01 04:02:15;;;;;;;15.02;8.95;;;7.10;99.90;;;;;;5070243;28;20311;-76
2024/01/01 04:04:44;;;;;;;14.30;9.75;;;7.10;99.90;;;;;;5080666;28;20272;-75
2024/01/01 04:07:13;;;;;;;15.47;10.83;;;7.10;99.90;;;;;;5083153;28;20114;-74
2024/01/01 04:09:39;;;;;;;23.30;13.73;;;7.00;99.90;;;;;;5064837;28;20044;-75
2024/01/01 04:12:05;;;;;;;19.00;13.82;;;7.10;99.90;;;;;;5071632;28;20056;-75
2024/01/01 04:14:31;;;;;;;19.85;15.63;;;7.00;99.90;;;;;;5070918;28;20032;-75
2024/01/01 04:17:07;;;;;;;25.77;16.40;;;7.00;99.90;;;;;;5059317;28;20108;-74
2024/01/01 04:19:33;;;;;;;20.27;15.30;;;7.00;99.90;;;;;;5084747;28;20048;-75
2024/01/01 04:21:59;;;;;;;19.67;15.00;;;7.00;99.90;;;;;;5061197;28;20097;-74
2024/01/01 04:24:25;;;;;;;20.65;14.15;;;7.00;99.90;;;;;;5069433;28;20067;-74
2024/01/01 04:26:50;;;;;;;18.30;11.77;;;7.00;99.90;;;;;;5088273;27;20101;-75
2024/01/01 04:29:16;;;;;;;16.08;11.80;;;7.00;99.90;;;;;;5087029;28;20051;-75
2024/01/01 04:31:44;;;;;;;15.65;8.57;;;6.90;99.90;;;;;;5081842;28;20031;-75
2024/01/01 04:34:10;;;;;;;16.92;8.27;;;7.00;99.90;;;;;;5084512;27;20043;-74
2024/01/01 04:36:36;;;;;;;18.30;8.05;;;7.00;99.90;;;;;;5088940;28;20052;-75
2024/01/01 04:39:03;;;;;;;16.30;7.43;;;7.00;99.90;;;;;;5085302;28;20123;-75
2024/01/01 04:41:30;;;;;;;15.85;6.95;;;7.00;99.90;;;;;;5085406;27;20040;-75
2024/01/01 04:43:55;;;;;;;16.92;6.85;;;7.00;99.90;;;;;;5084930;27;20035;-75
2024/01/01 04:46:21;;;;;;;14.02;6.38;;;6.90;99.90;;;;;;5084739;28;20462;-75
2024/01/01 04:48:47;;;;;;;18.50;7.80;;;6.90;99.90;;;;;;5094501;27;20520;-74
2024/01/01 04:51:13;;;;;;;15.55;7.88;;;6.90;99.90;;;;;;5077992;28;20051;-75
2024/01/01 04:53:38;;;;;;;20.05;8.15;;;6.90;99.90;;;;;;5083931;28;20043;-74
2024/01/01 04:56:05;;;;;;;20.15;9.15;;;6.90;99.90;;;;;;5080105;28;20087;-74
2024/01/01 04:58:32;;;;;;;18.63;8.48;;;6.90;99.90;;;;;;5085054;28;20124;-75
2024/01/01 05:00:57;;;;;;;16.50;7.40;;;6.90;99.90;;;;;;5075680;28;20809;-76
2024/01/01 05:03:23;;;;;;;14.45;6.30;;;6.90;99.90;;;;;;5084701;27;20035;-75
2024/01/01 05:05:49;;;;;;;12.15;6.00;;;6.90;99.90;;;;;;5081896;28;20402;-75
2024/01/01 05:08:15;;;;;;;15.63;6.05;;;6.90;99.90;;;;;;5085238;27;20043;-75
2024/01/01 05:10:40;;;;;;;13.73;5.85;;;6.90;99.90;;;;;;5078864;28;20055;-75
2024/01/01 05:13:07;;;;;;;18.25;6.75;;;6.90;99.90;;;;;;5061091;28;20544;-75
2024/01/01 05:15:33;;;;;;;11.77;5.28;;;6.90;99.90;;;;;;5080790;28;20411;-76
2024/01/01 05:17:59;;;;;;;18.88;6.55;;;6.90;99.90;;;;;;5074410;28;20192;-75
2024/01/01 05:20:25;;;;;;;16.30;5.75;;;6.90;99.90;;;;;;5083524;28;20044;-76
2024/01/01 05:22:51;;;;;;;16.15;6.18;;;6.90;99.90;;;;;;5068052;28;20040;-75
2024/01/01 05:25:17;;;;;;;15.82;6.03;;;6.90;99.90;;;;;;5092104;27;20044;-76
2024/01/01 05:27:43;;;;;;;16.15;5.50;;;6.90;99.90;;;;;;5073610;28;20050;-75
2024/01/01 05:30:09;;;;;;;19.40;6.53;;;6.90;99.90;;;;;;5071998;27;20129;-75
2024/01/01 05:32:34;;;;;;;15.27;5.88;;;6.90;99.90;;;;;;5088601;27;20122;-75
2024/01/01 05:35:00;;;;;;;15.18;5.38;;;6.90;99.90;;;;;;5092296;27;20437;-75
2024/01/01 05:37:26;;;;;;;16.42;5.53;;;6.90;99.90;;;;;;5086183;27;20044;-75
2024/01/01 05:39:52;;;;;;;16.73;5.85;;;6.90;99.90;;;;;;5083602;28;20040;-76
2024/01/01 05:42:18;;;;;;;16.95;5.65;;;7.00;99.90;;;;;;5083121;28;20036;-75
2024/01/01 05:44:44;;;;;;;16.20;5.18;;;7.00;99.90;;;;;;5083613;28;20395;-75
2024/01/01 05:47:10;;;;;;;16.23;5.70;;;7.00;99.90;;;;;;5090775;27;20068;-75
2024/01/01 05:49:36;;;;;;;13.95;6.10;;;7.00;99.90;;;;;;5084346;28;20575;-75
2024/01/01 05:52:02;;;;;;;13.00;5.40;;;7.00;99.90;;;;;;5073802;28;20088;-75
2024/01/01 05:54:28;;;;;;;15.48;4.97;;;7.10;99.90;;;;;;5080862;28;20092;-75
2024/01/01 05:56:54;;;;;;;14.45;5.20;;;7.00;99.90;;;;;;5083830;28;20486;-75
2024/01/01 05:59:20;;;;;;;16.55;5.60;;;7.00;99.90;;;;;;5067971;27;20035;-75
2024/01/01 06:01:46;;;;;;;13.43;5.72;;;7.00;99.90;;;;;;5086601;28;20073;-76
2024/01/01 06:04:11;;;;;;;13.38;5.10;;;7.00;99.90;;;;;;5064592;28;20236;-75
2024/01/01 06:06:37;;;;;;;23.55;6.68;;;7.10;99.90;;;;;;5088294;28;20138;-75
2024/01/01 06:09:03;;;;;;;11.00;4.50;;;7.10;99.90;;;;;;5088918;28;20040;-75
2024/01/01 06:11:29;;;;;;;14.57;5.47;;;7.10;99.90;;;;;;5085148;28;20092;-76
2024/01/01 06:13:55;;;;;;;13.57;5.60;;;7.10;99.90;;;;;;5084248;28;20035;-75
2024/01/01 06:16:21;;;;;;;16.40;6.28;;;7.10;99.90;;;;;;5071813;28;20042;-76
2024/01/01 06:18:47;;;;;;;13.32;4.72;;;7.10;99.90;;;;;;5083393;28;20031;-76
2024/01/01 06:21:12;;;;;;;15.45;5.32;;;7.10;99.90;;;;;;5068679;27;21067;-76
2024/01/01 06:23:40;;;;;;;15.00;5.40;;;7.10;99.90;;;;;;5089369;27;20107;-76
2024/01/01 06:26:06;;;;;;;14.68;4.63;;;7.10;99.90;;;;;;5081962;28;20058;-75
2024/01/01 06:28:32;;;;;;;14.60;5.20;;;7.10;99.90;;;;;;5084783;28;20039;-75
2024/01/01 06:30:57;;;;;;;14.13;5.20;;;7.10;99.90;;;;;;5063962;28;20441;-75
2024/01/01 06:33:23;;;;;;;11.68;4.68;;;7.10;99.90;;;;;;5076941;27;20041;-75
2024/01/01 06:35:49;;;;;;;13.43;5.25;;;7.10;99.90;;;;;;5083700;28;20574;-75
2024/01/01 06:38:15;;;;;;;16.00;4.93;;;7.10;99.90;;;;;;5085030;28;20039;-75
2024/01/01 06:40:41;;;;;;;12.52;4.90;;;7.10;99.90;;;;;;5068540;28;20416;-75
2024/01/01 06:43:07;;;;;;;13.93;5.43;;;7.10;99.90;;;;;;5067599;28;20401;-75
2024/01/01 06:45:32;;;;;;;15.32;5.32;;;7.10;99.90;;;;;;5066858;27;20595;-75
2024/01/01 06:47:58;;;;;;;12.40;4.97;;;7.10;99.90;;;;;;5063852;28;20048;-76
2024/01/01 06:50:24;;;;;;;15.07;5.15;;;7.10;99.90;;;;;;5083081;28;20101;-76
2024/01/01 06:52:50;;;;;;;14.32;5.30;;;7.20;99.90;;;;;;5072179;27;20140;-76
2024/01/01 06:55:17;;;;;;;16.27;6.32;;;7.20;99.90;;;;;;5089519;28;20050;-76
2024/01/01 06:57:43;;;;;;;11.63;4.95;;;7.20;99.90;;;;;;5078243;28;20048;-76
2024/01/01 07:00:09;;;;;;;18.50;6.28;;;7.10;99.90;;;;;;5085284;28;20051;-76
2024/01/01 07:02:35;;;;;;;15.50;5.13;;;7.10;99.90;;;;;;5081454;27;20046;-77
2024/01/01 07:05:01;;;;;;;15.35;6.00;;;7.20;99.90;;;;;;5062677;28;20532;-76
2024/01/01 07:07:27;;;;;;;13.50;6.18;;;7.20;99.90;;;;;;5081790;28;20501;-76
2024/01/01 07:09:52;;;;;;;12.98;6.18;;;7.20;99.90;;;;;;5064851;28;20724;-76
2024/01/01 07:12:20;;;;;;;15.82;5.82;;;7.20;99.90;;;;;;5067601;28;20506;-76
2024/01/01 07:14:49;;;;;;;12.57;6.10;;;7.20;99.90;;;;;;5067681;28;20059;-76
2024/01/01 07:17:16;;;;;;;13.40;5.80;;;7.20;99.90;;;;;;5080174;27;20038;-76
2024/01/01 07:19:42;;;;;;;12.98;4.93;;;7.20;99.90;;;;;;5075233;28;20532;-76
2024/01/01 07:22:09;;;;;;;12.88;5.43;;;7.10;99.90;;;;;;5066174;28;20043;-75
2024/01/01 07:24:34;;;;;;;12.05;4.80;;;7.10;99.90;;;;;;5082175;28;20036;-77
2024/01/01 07:27:00;;;;;;;13.63;5.43;;;7.10;99.90;;;;;;5066121;28;20035;-76
2024/01/01 07:29:27;;;;;;;12.77;4.68;;;7.10;99.90;;;;;;5065267;28;20036;-76
2024/01/01 07:31:54;;;;;;;12.07;4.47;;;7.10;99.90;;;;;;5081506;28;20039;-76
2024/01/01 07:34:20;;;;;;;12.80;4.95;;;7.10;99.90;;;;;;5070565;28;20191;-76
2024/01/01 07:36:47;;;;;;;9.20;4.05;;;7.10;99.90;;;;;;5072687;27;20598;-76
2024/01/01 07:39:13;;;;;;;10.18;4.07;;;7.10;99.90;;;;;;5065770;28;20520;-77
2024/01/01 07:41:39;;;;;;;12.63;3.92;;;7.10;99.90;;;;;;5078259;28;20047;-76
2024/01/01 07:44:06;;;;;;;9.63;4.20;;;7.10;99.90;;;;;;5082715;28;20047;-78
2024/01/01 07:46:33;;;;;;;10.48;4.45;;;7.10;99.90;;;;;;5068025;28;20051;-76
2024/01/01 07:49:02;;;;;;;13.73;4.78;;;7.10;99.90;;;;;;5073922;28;20554;-76
2024/01/01 07:51:27;;;;;;;12.70;4.25;;;7.10;99.90;;;;;;5079856;28;20862;-76
2024/01/01 07:53:53;;;;;;;17.60;5.22;;;7.10;99.90;;;;;;5075079;28;20043;-76
2024/01/01 07:56:19;;;;;;;16.90;5.97;;;7.10;99.90;;;;;;5064280;28;20050;-76
2024/01/01 07:58:45;;;;;;;15.68;6.05;;;7.10;99.90;;;;;;5084759;27;20035;-77
2024/01/01 08:01:11;;;;;;;17.85;7.53;;;7.20;99.90;;;;;;5078218;28;20028;-77
2024/01/01 08:03:40;;;;;;;15.55;7.30;;;7.10;99.90;;;;;;5066537;28;20043;-77
2024/01/01 08:06:06;;;;;;;19.58;8.00;;;7.20;99.90;;;;;;5093846;27;20054;-77
2024/01/01 08:08:32;;;;;;;16.17;8.05;;;7.20;99.90;;;;;;5077845;28;20051;-76
2024/01/01 08:10:57;;;;;;;16.13;7.70;;;7.20;99.90;;;;;;5071732;28;20478;-76
2024/01/01 08:13:23;;;;;;;19.17;6.93;;;7.20;99.90;;;;;;5069844;28;20040;-76
2024/01/01 08:15:50;;;;;;;16.75;7.07;;;7.20;99.90;;;;;;5085093;28;20511;-76
2024/01/01 08:18:16;;;;;;;18.20;7.85;;;7.30;99.90;;;;;;5069715;28;20066;-76
2024/01/01 08:20:42;;;;;;;17.40;7.78;;;7.20;99.90;;;;;;5066452;28;20398;-76
2024/01/01 08:23:07;;;;;;;13.32;6.68;;;7.30;99.90;;;;;;5066613;28;20071;-76
2024/01/01 08:25:33;;;;;;;19.65;7.78;;;7.30;99.90;;;;;;5062849;27;20079;-78
2024/01/01 08:27:59;;;;;;;17.15;6.68;;;7.30;99.90;;;;;;5075144;27;20055;-75
2024/01/01 08:30:28;;;;;;;14.25;5.97;;;7.30;99.90;;;;;;5072705;27;20122;-76
2024/01/01 08:32:53;;;;;;;16.83;6.43;;;7.30;99.90;;;;;;5090141;28;20075;-76
2024/01/01 08:35:20;;;;;;;14.95;5.45;;;7.30;99.90;;;;;;5071997;28;20567;-76
2024/01/01 08:37:47;;;;;;;13.25;5.35;;;7.30;99.90;;;;;;5073669;27;20070;-75
2024/01/01 08:40:13;;;;;;;16.40;6.80;;;7.30;99.90;;;;;;5082062;28;20051;-75
2024/01/01 08:42:39;;;;;;;12.70;6.65;;;7.30;99.90;;;;;;5082993;28;20048;-75
2024/01/01 08:45:05;;;;;;;19.63;7.65;;;7.30;99.90;;;;;;5083513;28;20182;-76
2024/01/01 08:47:31;;;;;;;19.42;6.85;;;7.30;99.90;;;;;;5069458;28;20044;-75
2024/01/01 08:49:57;;;;;;;18.92;6.95;;;7.30;99.90;;;;;;5083422;28;20040;-75
2024/01/01 08:52:22;;;;;;;15.85;6.93;;;7.30;99.90;;;;;;5087665;28;20205;-75
2024/01/01 08:54:48;;;;;;;20.35;7.22;;;7.30;99.90;;;;;;5083287;28;20056;-75
2024/01/01 08:57:14;;;;;;;20.80;7.50;;;7.30;99.90;;;;;;5066234;28;20115;-75
2024/01/01 08:59:41;;;;;;;19.30;6.50;;;7.30;99.90;;;;;;5087094;28;20044;-75
2024/01/01 09:02:08;;;;;;;14.23;6.63;;;7.40;99.90;;;;;;5089936;28;20132;-74
2024/01/01 09:04:34;;;;;;;20.70;6.95;;;7.40;99.90;;;;;;5067924;28;20528;-75
2024/01/01 09:07:01;;;;;;;19.33;6.80;;;7.30;99.90;;;;;;5085588;27;20040;-74
2024/01/01 09:09:30;;;;;;;18.30;5.70;;;7.30;99.90;;;;;;5065885;28;20044;-75
2024/01/01 09:11:56;;;;;;;15.13;5.00;;;7.40;99.90;;;;;;5092994;27;20042;-75
2024/01/01 09:14:22;;;;;;;12.88;4.47;;;7.40;99.90;;;;;;5090624;28;20035;-75
2024/01/01 09:16:48;;;;;;;12.90;4.60;;;7.30;99.90;;;;;;5080910;28;20398;-75
2024/01/01 09:19:17;;;;;;;15.70;5.25;;;7.40;99.90;;;;;;5083484;28;20036;-75
2024/01/01 09:21:46;;;;;;;16.70;5.15;;;7.40;99.90;;;;;;5093097;28;20048;-76
2024/01/01 09:24:12;;;;;;;15.48;5.90;;;7.40;99.90;;;;;;5079891;28;20051;-75
2024/01/01 09:26:39;;;;;;;20.67;5.60;;;7.40;99.90;;;;;;5065235;28;20056;-76
2024/01/01 09:29:08;;;;;;;12.98;5.00;;;7.50;99.90;;;;;;5061212;28;20459;-75
2024/01/01 09:31:34;;;;;;;16.10;5.25;;;7.50;99.90;;;;;;5076734;27;20563;-75
2024/01/01 09:34:01;;;;;;;15.80;5.90;;;7.50;99.90;;;;;;5080493;27;20153;-75
2024/01/01 09:36:30;;;;;;;16.45;5.28;;;7.50;99.90;;;;;;5081223;28;20043;-75
2024/01/01 09:38:56;;;;;;;13.32;6.00;;;7.50;99.90;;;;;;5087501;28;20040;-76
2024/01/01 09:41:28;;;;;;;16.30;5.95;;;7.50;99.90;;;;;;5086442;28;20039;-75
2024/01/01 09:43:55;;;;;;;15.98;5.43;;;7.50;99.90;;;;;;5082756;27;20413;-75
2024/01/01 09:46:22;;;;;;;16.70;5.65;;;7.50;99.90;;;;;;5083147;28;20209;-74
2024/01/01 09:48:49;;;;;;;13.32;4.40;;;7.50;99.90;;;;;;5088527;28;20802;-74
2024/01/01 09:51:15;;;;;;;16.25;5.05;;;7.50;99.90;;;;;;5082616;28;20051;-74
2024/01/01 09:53:44;;;;;;;17.08;6.03;;;7.50;99.90;;;;;;5079989;28;20055;-75
2024/01/01 09:56:09;;;;;;;16.63;5.22;;;7.50;99.90;;;;;;5073221;27;20454;-75
2024/01/01 09:58:43;;;;;;;16.80;5.38;;;7.50;99.90;;;;;;5073649;28;20071;-75
2024/01/01 10:01:15;;;;;;;16.80;5.80;;;7.60;99.90;;;;;;5071111;27;20039;-74
2024/01/01 10:03:40;;;;;;;15.80;4.93;;;7.50;99.90;;;;;;5088400;28;20074;-75
2024/01/01 10:06:08;;;;;;;17.48;4.65;;;7.50;99.90;;;;;;5088878;28;20320;-75
2024/01/01 10:08:34;;;;;;;14.38;4.20;;;7.50;99.90;;;;;;5089307;28;20391;-75
2024/01/01 10:11:14;;;;;;;15.10;3.85;;;7.50;99.90;;;;;;5088769;28;20081;-75
2024/01/01 10:13:39;;;;;;;13.10;4.93;;;7.50;99.90;;;;;;5070322;27;20047;-75
2024/01/01 10:16:07;;;;;;;17.65;6.10;;;7.50;99.90;;;;;;5067252;28;20032;-75
2024/01/01 10:18:33;;;;;;;17.98;5.30;;;7.50;99.90;;;;;;5076799;28;20047;-76
2024/01/01 10:21:25;;;;;;;17.75;4.75;;;7.60;99.90;;;;;;5086232;27;20080;-75
2024/01/01 10:23:51;;;;;;;14.50;4.20;;;7.70;99.90;;;;;;5068793;28;20489;-76
2024/01/01 10:26:16;;;;;;;16.05;4.13;;;7.60;99.90;;;;;;5066813;28;20044;-76
2024/01/01 10:28:43;;;;;;;13.98;4.55;;;7.70;99.90;;;;;;5088756;28;20044;-76
2024/01/01 10:31:12;;;;;;;13.85;4.13;;;7.70;99.90;;;;;;5082565;27;20035;-76
2024/01/01 10:33:40;;;;;;;17.27;4.38;;;7.70;99.90;;;;;;5082682;28;20101;-75
2024/01/01 10:36:06;;;;;;;14.23;4.22;;;7.70;99.90;;;;;;5069296;28;20055;-76
2024/01/01 10:38:34;;;;;;;15.38;3.78;;;7.70;99.90;;;;;;5079968;28;20051;-75
2024/01/01 10:41:02;;;;;;;11.65;3.40;;;7.80;99.90;;;;;;5083700;28;20070;-75
2024/01/01 10:43:28;;;;;;;11.68;3.10;;;7.80;99.90;;;;;;5065645;28;20375;-75
2024/01/01 10:46:07;;;;;;;12.20;2.72;;;7.80;99.90;;;;;;5084176;28;20135;-75
2024/01/01 10:48:35;;;;;;;11.68;3.13;;;8.00;99.90;;;;;;5080588;28;20035;-75
2024/01/01 10:51:05;;;;;;;14.07;3.38;;;8.00;99.90;;;;;;5078562;28;20375;-75
2024/01/01 10:53:31;;;;;;;;;;;8.00;99.90;;;;;;5086444;28;20051;-75
2024/01/01 10:56:03;;;;;;;16.40;3.47;;;7.90;99.90;;;;;;5091763;28;20040;-75
2024/01/01 10:58:44;;;;;;;14.35;3.95;;;7.90;99.90;;;;;;5081667;28;20044;-75
2024/01/01 11:01:13;;;;;;;10.35;2.80;;;7.90;99.90;;;;;;5066125;28;20054;-74
2024/01/01 11:03:41;;;;;;;11.90;3.07;;;7.90;99.90;;;;;;5073386;28;20071;-75
2024/01/01 11:06:31;;;;;;;15.15;3.22;;;7.80;99.90;;;;;;5063000;28;20290;-75
2024/01/01 11:09:18;;;;;;;15.02;3.50;;;7.80;99.90;;;;;;5062612;28;20076;-75
2024/01/01 11:11:49;;;;;;;19.85;4.03;;;7.80;99.90;;;;;;5061395;28;20452;-75
2024/01/01 11:14:34;;;;;;;14.40;3.40;;;7.90;99.90;;;;;;5063317;28;20647;-75
2024/01/01 11:17:06;;;;;;;15.50;4.13;;;8.00;99.90;;;;;;5072911;28;20102;-75
2024/01/01 11:19:41;;;;;;;12.13;2.58;;;7.90;99.90;;;;;;5071369;28;20114;-76
2024/01/01 11:22:33;;;;;;;16.05;3.15;;;7.90;99.90;;;;;;5081485;27;20079;-75
2024/01/01 11:25:00;;;;;;;11.60;2.83;;;7.90;99.90;;;;;;5067083;27;20042;-75
2024/01/01 11:27:31;;;;;;;14.07;2.92;;;7.90;99.90;;;;;;5080707;28;20141;-76
2024/01/01 11:30:05;;;;;;;13.25;3.00;;;8.00;99.90;;;;;;5063793;27;21034;-76
2024/01/01 11:32:31;;;;;;;16.48;3.10;;;8.00;99.90;;;;;;5082368;28;20039;-76
2024/01/01 11:35:08;;;;;;;13.68;3.00;;;8.00;99.90;;;;;;5083409;28;20050;-76
2024/01/01 11:37:39;;;;;;;13.93;2.67;;;8.10;99.90;;;;;;5077164;28;20074;-75
2024/01/01 11:40:06;;;;;;;12.32;2.78;;;8.10;99.90;;;;;;5064339;28;20679;-76
2024/01/01 11:42:32;;;;;;;14.65;3.08;;;8.10;99.90;;;;;;5088761;28;20039;-75
2024/01/01 11:45:17;;;;;;;15.35;2.67;;;8.10;99.90;;;;;;5091421;28;20161;-75
2024/01/01 11:47:45;;;;;;;13.30;3.28;;;8.20;99.90;;;;;;5073235;27;20122;-75
2024/01/01 11:50:12;;;;;;;15.43;2.97;;;8.10;99.90;;;;;;5068552;28;20039;-75
2024/01/01 11:52:38;;;;;;;16.95;3.33;;;8.10;99.90;;;;;;5063442;28;20040;-75
2024/01/01 11:55:04;;;;;;;14.63;3.22;;;8.20;99.90;;;;;;5086582;28;20051;-75
2024/01/01 11:57:30;;;;;;;14.63;2.80;;;8.20;99.90;;;;;;5087005;28;20084;-75
2024/01/01 11:59:56;;;;;;;13.13;2.78;;;8.30;99.90;;;;;;5093241;28;20105;-75
2024/01/01 12:02:23;;;;;;;12.63;3.17;;;8.30;99.90;;;;;;5086083;28;20049;-75
2024/01/01 12:04:54;;;;;;;13.63;3.50;;;8.30;99.90;;;;;;5064082;28;20097;-76
2024/01/01 12:07:31;;;;;;;13.15;2.97;;;8.30;99.90;;;;;;5084378;28;20057;-76
2024/01/01 12:10:20;;;;;;;10.73;2.78;;;8.30;99.90;;;;;;5076815;28;20051;-75
2024/01/01 12:12:47;;;;;;;14.93;3.47;;;8.30;99.90;;;;;;5074566;28;20781;-75
2024/01/01 12:15:21;;;;;;;12.23;3.05;;;8.30;99.90;;;;;;5078148;28;20047;-75
2024/01/01 12:17:51;;;;;;;17.13;3.42;;;8.20;99.90;;;;;;5075616;28;20055;-74
2024/01/01 12:20:22;;;;;;;13.38;2.78;;;8.20;99.90;;;;;;5066259;28;20048;-76
2024/01/01 12:22:49;;;;;;;17.08;3.60;;;8.20;99.90;;;;;;5068660;28;20100;-75
2024/01/01 12:25:20;;;;;;;17.73;3.50;;;8.10;99.90;;;;;;5058850;28;20075;-75
2024/01/01 12:28:02;;;;;;;17.08;3.38;;;8.10;99.90;;;;;;5060876;28;20059;-76
2024/01/01 12:30:28;;;;;;;11.05;2.55;;;8.10;99.90;;;;;;5069612;28;20358;-75
2024/01/01 12:32:54;;;;;;;7.03;1.67;;;8.10;99.90;;;;;;5082265;28;20078;-76
2024/01/01 12:35:20;;;;;;;10.52;2.67;;;7.90;99.90;;;;;;5068824;28;20373;-75
2024/01/01 12:37:47;;;;;;;13.65;2.33;;;7.80;99.90;;;;;;5054664;28;20048;-75
2024/01/01 12:40:14;;;;;;;14.55;3.40;;;7.80;99.90;;;;;;5065172;28;20384;-73
2024/01/01 12:42:40;;;;;;;11.68;2.50;;;7.70;99.90;;;;;;5072925;28;20048;-73